createdAt,value
2023-05-10T00:00:50.587Z,12.40
2023-05-10T00:03:17.914Z,8.60
2023-05-10T00:05:44.970Z,8.50
2023-05-10T00:08:12.076Z,10.30
2023-05-10T00:10:39.477Z,7.90
2023-05-10T00:13:06.782Z,10.60
2023-05-10T00:15:34.098Z,10.20
2023-05-10T00:18:01.505Z,9.00
2023-05-10T00:20:28.802Z,7.30
2023-05-10T00:22:55.909Z,9.80
2023-05-10T00:25:22.997Z,7.70
2023-05-10T00:27:50.878Z,7.70
2023-05-10T00:30:18.253Z,9.00
2023-05-10T00:32:46.025Z,6.60
2023-05-10T00:35:13.776Z,6.90
2023-05-10T00:37:41.747Z,5.90
2023-05-10T00:40:08.958Z,8.20
2023-05-10T00:42:36.559Z,9.70
2023-05-10T00:45:03.886Z,7.40
2023-05-10T00:47:32.514Z,6.40
2023-05-10T00:50:01.737Z,6.70
2023-05-10T00:52:29.576Z,9.20
2023-05-10T00:54:56.564Z,9.80
2023-05-10T00:57:24.219Z,5.20
2023-05-10T00:59:51.556Z,8.50
2023-05-10T01:02:19.069Z,6.90
2023-05-10T01:04:46.515Z,7.70
2023-05-10T01:07:13.755Z,7.60
2023-05-10T01:09:41.137Z,8.70
2023-05-10T01:12:08.497Z,6.80
2023-05-10T01:14:37.362Z,8.50
2023-05-10T01:17:04.940Z,6.30
2023-05-10T01:19:32.190Z,6.40
2023-05-10T01:22:16.224Z,6.90
2023-05-10T01:24:58.113Z,5.70
2023-05-10T01:27:40.875Z,8.60
2023-05-10T01:30:27.252Z,6.30
2023-05-10T01:33:19.687Z,7.40
2023-05-10T01:35:59.546Z,7.00
2023-05-10T01:38:51.395Z,6.70
2023-05-10T01:41:39.301Z,6.50
2023-05-10T01:44:11.326Z,6.70
2023-05-10T01:46:39.449Z,8.10
2023-05-10T01:49:10.383Z,7.50
2023-05-10T01:51:44.419Z,7.10
2023-05-10T01:54:11.897Z,8.70
2023-05-10T01:56:39.142Z,9.30
2023-05-10T01:59:08.466Z,6.20
2023-05-10T02:01:36.007Z,6.80
2023-05-10T02:04:02.995Z,6.90
2023-05-10T02:06:30.551Z,6.00
2023-05-10T02:08:57.601Z,8.10
2023-05-10T02:11:24.808Z,8.30
2023-05-10T02:13:52.866Z,6.50
2023-05-10T02:16:20.063Z,7.40
2023-05-10T02:18:48.122Z,6.40
2023-05-10T02:21:15.546Z,6.90
2023-05-10T02:23:42.788Z,6.20
2023-05-10T02:26:09.951Z,6.60
2023-05-10T02:28:37.037Z,7.60
2023-05-10T02:31:04.527Z,8.00
2023-05-10T02:33:31.740Z,7.40
2023-05-10T02:35:58.818Z,11.10
2023-05-10T02:38:26.375Z,5.00
2023-05-10T02:40:53.731Z,6.20
2023-05-10T02:43:20.722Z,7.90
2023-05-10T02:45:48.457Z,7.90
2023-05-10T02:48:15.701Z,9.00
2023-05-10T02:50:45.044Z,9.90
2023-05-10T02:53:16.486Z,9.80
2023-05-10T02:55:43.983Z,7.70
2023-05-10T02:58:11.198Z,6.10
2023-05-10T03:00:38.581Z,5.30
2023-05-10T03:03:05.744Z,8.90
2023-05-10T03:05:34.185Z,7.10
2023-05-10T03:08:05.115Z,7.50
2023-05-10T03:10:32.374Z,8.40
2023-05-10T03:13:22.455Z,6.60
2023-05-10T03:15:49.909Z,7.30
2023-05-10T03:18:19.314Z,6.80
2023-05-10T03:20:51.969Z,8.80
2023-05-10T03:23:19.052Z,9.00
2023-05-10T03:25:47.208Z,7.30
2023-05-10T03:28:14.615Z,6.20
2023-05-10T03:30:42.614Z,7.30
2023-05-10T03:33:10.613Z,9.60
2023-05-10T03:35:40.468Z,7.90
2023-05-10T03:38:07.495Z,9.90
2023-05-10T03:40:34.589Z,7.00
2023-05-10T03:43:01.733Z,7.10
2023-05-10T03:45:29.077Z,5.80
2023-05-10T03:47:56.886Z,8.60
2023-05-10T03:50:25.371Z,12.70
2023-05-10T03:52:54.093Z,7.50
2023-05-10T03:55:21.874Z,8.10
2023-05-10T03:57:50.670Z,13.10
2023-05-10T04:00:18.299Z,11.90
2023-05-10T04:02:48.314Z,9.50
2023-05-10T04:05:19.224Z,12.80
2023-05-10T04:07:47.401Z,14.40
2023-05-10T04:10:14.772Z,13.70
2023-05-10T04:12:42.978Z,11.60
2023-05-10T04:15:10.783Z,12.20
2023-05-10T04:17:38.713Z,9.70
2023-05-10T04:20:06.791Z,10.50
2023-05-10T04:22:33.790Z,13.40
2023-05-10T04:25:00.754Z,11.30
2023-05-10T04:27:28.225Z,11.90
2023-05-10T04:29:55.409Z,13.50
2023-05-10T04:32:22.373Z,22.20
2023-05-10T04:34:49.416Z,17.20
2023-05-10T04:37:16.452Z,14.40
2023-05-10T04:39:43.528Z,14.70
2023-05-10T04:42:10.651Z,11.10
2023-05-10T04:44:37.697Z,12.10
2023-05-10T04:47:04.792Z,15.30
2023-05-10T04:49:32.100Z,19.00
2023-05-10T04:51:59.109Z,12.70
2023-05-10T04:54:26.063Z,10.00
2023-05-10T04:56:53.029Z,13.00
2023-05-10T04:59:20.162Z,13.60
2023-05-10T05:01:47.034Z,18.80
2023-05-10T05:04:14.025Z,20.10
2023-05-10T05:06:41.261Z,11.20
2023-05-10T05:09:08.278Z,10.40
2023-05-10T05:11:35.245Z,10.30
2023-05-10T05:14:03.134Z,10.40
2023-05-10T05:16:32.100Z,11.50
2023-05-10T05:18:59.037Z,10.60
2023-05-10T05:21:27.935Z,11.50
2023-05-10T05:23:54.896Z,14.30
2023-05-10T13:56:55.882Z,5.80
2023-05-10T13:59:23.577Z,8.90
2023-05-10T14:01:50.558Z,3.90
2023-05-10T14:04:17.840Z,10.40
2023-05-10T14:06:44.734Z,49.00
2023-05-10T14:09:11.892Z,25.70
2023-05-10T14:11:42.731Z,12.90
2023-05-10T14:16:37.040Z,26.00
2023-05-10T14:19:04.165Z,8.40
2023-05-10T14:21:31.824Z,16.60
2023-05-10T14:23:58.740Z,12.50
2023-05-10T14:26:26.125Z,10.30
2023-05-10T14:28:53.390Z,10.90
2023-05-10T14:31:24.378Z,7.40
2023-05-10T14:33:51.312Z,7.60
2023-05-10T14:36:18.688Z,13.00
2023-05-10T14:38:45.646Z,7.00
2023-05-10T14:41:15.552Z,12.10
2023-05-10T14:43:42.506Z,12.20
2023-05-10T14:46:09.902Z,10.50
2023-05-10T14:48:37.275Z,16.00
2023-05-10T14:51:04.762Z,16.10
2023-05-10T14:53:31.771Z,37.40
2023-05-10T14:55:58.924Z,5.60
2023-05-10T14:58:26.068Z,11.00
2023-05-10T15:00:54.069Z,5.50
2023-05-10T15:03:22.453Z,5.60
2023-05-10T15:05:49.859Z,19.90
2023-05-10T15:08:17.433Z,14.40
2023-05-10T15:10:44.540Z,9.50
2023-05-10T15:13:11.705Z,7.40
2023-05-10T15:15:38.831Z,12.10
2023-05-10T15:18:06.737Z,15.40
2023-05-10T15:20:33.755Z,12.40
2023-05-10T15:23:00.636Z,28.10
2023-05-10T15:25:28.865Z,7.50
2023-05-10T15:27:56.137Z,10.10
2023-05-10T15:30:23.247Z,6.70
2023-05-10T15:32:50.314Z,56.30
2023-05-10T15:35:18.223Z,31.10
2023-05-10T15:37:45.633Z,10.00
2023-05-10T15:40:12.783Z,13.70
2023-05-10T15:42:39.944Z,13.30
2023-05-10T15:45:07.519Z,15.90
2023-05-10T15:47:34.761Z,23.50
2023-05-10T15:50:01.809Z,26.20
2023-05-10T15:52:29.219Z,7.30
2023-05-10T15:54:56.530Z,15.50
2023-05-10T15:57:23.527Z,11.30
2023-05-10T15:59:50.914Z,23.50
2023-05-10T16:02:19.435Z,11.50
2023-05-10T16:04:46.515Z,19.20
2023-05-10T16:07:13.380Z,12.80
2023-05-10T16:09:40.384Z,13.50
2023-05-10T16:12:08.355Z,24.70
2023-05-10T16:14:35.547Z,16.10
2023-05-10T16:17:04.285Z,12.70
2023-05-10T16:19:31.789Z,39.90
2023-05-10T16:21:58.771Z,29.50
2023-05-10T16:24:26.542Z,48.20
2023-05-10T16:26:53.430Z,7.90
2023-05-10T16:29:20.346Z,6.20
2023-05-10T16:31:47.306Z,9.40
2023-05-10T16:34:14.264Z,16.20
2023-05-10T16:36:41.310Z,14.10
2023-05-10T16:39:09.846Z,14.50
2023-05-10T16:41:36.806Z,11.00
2023-05-10T16:44:04.029Z,54.20
2023-05-10T16:46:31.207Z,17.20
2023-05-10T16:48:59.854Z,16.40
2023-05-10T16:51:27.229Z,16.30
2023-05-10T16:53:55.218Z,8.20
2023-05-10T16:56:23.443Z,9.30
2023-05-10T16:58:50.421Z,13.80
2023-05-10T17:01:17.568Z,17.80
2023-05-10T17:03:44.700Z,17.60
2023-05-10T17:06:12.129Z,18.80
2023-05-10T17:08:39.593Z,39.50
2023-05-10T17:11:06.574Z,20.20
2023-05-10T17:13:33.805Z,33.90
2023-05-10T17:16:03.677Z,39.90
2023-05-10T17:18:31.031Z,42.10
2023-05-10T17:20:58.383Z,71.10
2023-05-10T17:23:25.731Z,12.90
2023-05-10T17:25:53.003Z,9.60
2023-05-10T17:28:20.476Z,16.50
2023-05-10T17:30:47.676Z,10.60
2023-05-10T17:33:14.621Z,24.10
2023-05-10T17:35:46.506Z,21.80
2023-05-10T17:38:13.819Z,9.80
2023-05-10T17:40:41.518Z,6.70
2023-05-10T17:43:08.793Z,29.40
2023-05-10T17:45:36.379Z,12.20
2023-05-10T17:48:04.279Z,8.90
2023-05-10T17:50:32.666Z,10.80
2023-05-10T17:52:59.538Z,8.00
2023-05-10T17:55:27.210Z,14.30
2023-05-10T17:57:58.616Z,11.00
2023-05-10T18:00:25.891Z,10.30
2023-05-10T18:02:52.868Z,11.40
2023-05-10T18:05:20.805Z,26.10
2023-05-10T18:07:48.414Z,32.90
2023-05-10T18:10:15.506Z,10.60
2023-05-10T18:12:42.999Z,10.00
2023-05-10T18:15:10.490Z,11.60
2023-05-10T18:17:37.910Z,24.80
2023-05-10T18:20:07.451Z,29.20
2023-05-10T18:22:34.510Z,26.70
2023-05-10T18:25:02.232Z,33.30
2023-05-10T18:27:29.966Z,44.50
2023-05-10T18:29:57.131Z,36.10
2023-05-10T18:32:24.580Z,29.30
2023-05-10T18:34:52.450Z,32.50
2023-05-10T18:37:21.060Z,31.50
2023-05-10T18:39:47.949Z,25.10
2023-05-10T18:42:15.471Z,34.20
2023-05-10T18:44:42.413Z,37.10
2023-05-10T18:47:09.375Z,32.90
2023-05-10T18:49:36.585Z,29.20
2023-05-10T18:52:03.999Z,99.30
2023-05-10T18:54:31.350Z,297.90
2023-05-10T18:56:59.039Z,465.10
2023-05-10T18:59:27.820Z,296.60
2023-05-10T19:01:56.999Z,328.90
2023-05-10T19:04:24.591Z,258.10
2023-05-10T19:06:51.589Z,189.00
2023-05-10T19:09:20.251Z,103.90
2023-05-10T19:11:47.207Z,96.90
2023-05-10T19:14:14.498Z,79.30
2023-05-10T19:16:42.750Z,94.60
2023-05-10T19:19:10.371Z,57.60
2023-05-10T19:21:39.823Z,45.10
2023-05-10T19:24:08.768Z,32.10
2023-05-10T19:26:37.231Z,39.80
2023-05-10T19:29:04.201Z,39.10
2023-05-10T19:31:33.472Z,43.60
2023-05-10T19:34:00.974Z,63.50
2023-05-10T19:36:28.613Z,52.90
2023-05-10T19:38:55.694Z,67.70
2023-05-10T19:41:22.869Z,76.30
2023-05-10T19:43:50.095Z,83.40
2023-05-10T19:46:19.289Z,74.60
2023-05-10T19:48:50.141Z,72.40
2023-05-10T19:51:17.209Z,119.80
2023-05-10T19:53:45.080Z,114.80
2023-05-10T19:56:12.961Z,89.00
2023-05-10T19:58:40.476Z,92.80
2023-05-10T20:01:08.118Z,160.10
2023-05-10T20:03:35.869Z,140.40
2023-05-10T20:06:03.090Z,107.10
2023-05-10T20:08:30.104Z,101.80
2023-05-10T20:11:02.627Z,77.00
2023-05-10T20:13:30.045Z,79.50
2023-05-10T20:15:58.191Z,86.80
2023-05-10T20:18:26.030Z,78.70
2023-05-10T20:20:59.195Z,73.60
2023-05-10T20:23:26.694Z,86.20
2023-05-10T20:25:54.989Z,87.40
2023-05-10T20:28:23.137Z,79.50
2023-05-10T20:30:53.873Z,75.60
2023-05-10T20:35:48.242Z,61.50
2023-05-10T20:38:15.161Z,58.50
2023-05-10T20:40:43.591Z,54.30
2023-05-10T20:43:10.684Z,51.10
2023-05-10T20:45:37.952Z,45.40
2023-05-10T20:48:05.235Z,52.00
2023-05-10T20:50:32.409Z,61.80
2023-05-10T20:53:00.966Z,85.30
2023-05-10T20:55:28.733Z,62.60
2023-05-10T20:57:55.817Z,48.40
2023-05-10T21:00:22.817Z,47.10
2023-05-10T21:02:49.932Z,35.20
2023-05-10T21:05:18.103Z,28.70
2023-05-10T21:07:47.386Z,26.90
2023-05-10T21:10:14.586Z,32.00
2023-05-10T21:12:42.161Z,28.40
2023-05-10T21:15:09.465Z,27.60
2023-05-10T21:17:37.060Z,29.20
2023-05-10T21:20:04.265Z,30.20
2023-05-10T21:22:32.091Z,35.90
2023-05-10T21:24:59.080Z,33.60
2023-05-10T21:27:26.068Z,32.50
2023-05-10T21:29:53.683Z,38.50
2023-05-10T21:32:21.017Z,32.40
2023-05-10T21:34:48.947Z,34.30
2023-05-10T21:37:17.503Z,27.10
2023-05-10T21:39:44.793Z,26.70
2023-05-10T21:42:11.923Z,22.30
2023-05-10T21:44:39.337Z,17.30
2023-05-10T21:47:06.316Z,17.50
2023-05-10T21:49:34.216Z,18.20
2023-05-10T21:52:01.735Z,27.30
2023-05-10T21:54:28.919Z,23.70
2023-05-10T21:56:55.956Z,33.80
2023-05-10T21:59:23.451Z,42.50
2023-05-10T22:01:50.662Z,46.10
2023-05-10T22:04:17.949Z,41.10
2023-05-10T22:06:45.198Z,38.70
2023-05-10T22:09:12.202Z,26.90
2023-05-10T22:11:39.186Z,23.00
2023-05-10T22:14:06.337Z,29.10
2023-05-10T22:16:33.519Z,26.40
2023-05-10T22:19:00.679Z,23.60
2023-05-10T22:21:27.896Z,24.40
2023-05-10T22:23:55.296Z,23.40
2023-05-10T22:26:22.738Z,21.50
2023-05-10T22:28:50.099Z,21.10
2023-05-10T22:31:17.424Z,16.60
2023-05-10T22:33:44.487Z,18.10
2023-05-10T22:36:11.755Z,21.70
2023-05-10T22:38:38.743Z,20.30
2023-05-10T22:41:06.004Z,20.70
2023-05-10T22:43:33.633Z,20.30
2023-05-10T22:46:00.888Z,16.10
2023-05-10T22:48:28.718Z,18.50
2023-05-10T22:50:55.915Z,18.50
2023-05-10T22:53:23.184Z,17.40
2023-05-10T22:55:50.809Z,21.90
2023-05-10T22:58:18.011Z,20.50
2023-05-10T23:00:44.991Z,16.50
2023-05-10T23:03:11.916Z,15.10
2023-05-10T23:05:38.991Z,13.30
2023-05-10T23:08:06.370Z,13.90
2023-05-10T23:10:33.616Z,17.20
2023-05-10T23:13:01.174Z,16.00
2023-05-10T23:15:28.118Z,15.40
2023-05-10T23:17:55.223Z,15.70
2023-05-10T23:20:22.271Z,12.40
2023-05-10T23:22:49.735Z,12.20
2023-05-10T23:25:17.170Z,11.30
2023-05-10T23:27:44.228Z,17.50
2023-05-10T23:30:11.587Z,23.90
2023-05-10T23:32:39.117Z,26.20
2023-05-10T23:35:07.028Z,24.00
2023-05-10T23:37:34.327Z,23.10
2023-05-10T23:40:02.028Z,21.50
2023-05-10T23:42:29.299Z,14.00
2023-05-10T23:44:56.531Z,13.70
2023-05-10T23:47:23.562Z,14.40
2023-05-10T23:49:50.680Z,14.20
2023-05-10T23:52:17.848Z,14.40
2023-05-10T23:54:45.951Z,10.60
2023-05-10T23:57:13.041Z,13.50
2023-05-10T23:59:40.014Z,10.10
